createdAt,value
2023-10-23T00:00:37.440Z,93.58
2023-10-23T00:03:06.353Z,93.76
2023-10-23T00:05:35.130Z,93.96
2023-10-23T00:08:03.750Z,94.02
2023-10-23T00:10:32.257Z,94.19
2023-10-23T00:13:00.805Z,93.98
2023-10-23T00:15:29.491Z,94.19
2023-10-23T00:17:58.091Z,94.17
2023-10-23T00:20:26.600Z,94.01
2023-10-23T00:22:55.245Z,93.85
2023-10-23T00:25:23.755Z,93.72
2023-10-23T00:27:52.377Z,93.80
2023-10-23T00:30:20.944Z,94.51
2023-10-23T00:32:49.737Z,94.68
2023-10-23T00:35:18.726Z,94.31
2023-10-23T00:37:47.248Z,93.95
2023-10-23T00:40:15.882Z,93.76
2023-10-23T00:42:45.044Z,93.53
2023-10-23T00:45:13.630Z,93.54
2023-10-23T00:47:42.866Z,93.61
2023-10-23T00:50:12.217Z,94.27
2023-10-23T00:52:40.946Z,94.11
2023-10-23T00:55:10.873Z,93.87
2023-10-23T00:57:40.431Z,93.97
2023-10-23T01:00:11.234Z,94.34
2023-10-23T01:02:40.946Z,94.77
2023-10-23T01:05:09.803Z,94.82
2023-10-23T01:07:38.378Z,94.44
2023-10-23T01:10:08.021Z,94.46
2023-10-23T01:12:36.564Z,94.31
2023-10-23T01:15:06.117Z,94.23
2023-10-23T01:17:34.664Z,94.09
2023-10-23T01:20:03.193Z,94.10
2023-10-23T01:22:31.815Z,94.22
2023-10-23T01:25:03.003Z,94.40
2023-10-23T01:27:31.648Z,94.55
2023-10-23T01:30:00.311Z,94.38
2023-10-23T01:32:28.783Z,94.73
2023-10-23T01:34:58.006Z,94.57
2023-10-23T01:37:26.488Z,94.40
2023-10-23T01:39:56.606Z,94.28
2023-10-23T01:42:30.279Z,94.29
2023-10-23T01:45:00.638Z,94.09
2023-10-23T01:47:29.863Z,93.94
2023-10-23T01:49:58.452Z,93.97
2023-10-23T01:52:27.158Z,94.48
2023-10-23T01:54:56.079Z,94.18
2023-10-23T01:57:25.195Z,94.07
2023-10-23T01:59:55.169Z,94.01
2023-10-23T02:02:24.101Z,94.16
2023-10-23T02:04:52.693Z,94.69
2023-10-23T02:07:21.684Z,94.73
2023-10-23T02:09:50.385Z,94.58
2023-10-23T02:12:19.037Z,94.67
2023-10-23T02:14:47.555Z,94.43
2023-10-23T02:17:17.980Z,94.60
2023-10-23T02:19:47.686Z,94.46
2023-10-23T02:22:17.228Z,94.49
2023-10-23T02:24:46.127Z,94.62
2023-10-23T02:27:14.865Z,94.56
2023-10-23T02:29:43.515Z,94.51
2023-10-23T02:32:14.076Z,94.66
2023-10-23T02:34:44.853Z,94.75
2023-10-23T02:37:14.122Z,94.66
2023-10-23T02:39:42.676Z,94.51
2023-10-23T02:42:13.786Z,94.55
2023-10-23T02:44:42.422Z,94.45
2023-10-23T02:47:11.153Z,94.52
2023-10-23T02:49:41.096Z,94.76
2023-10-23T02:52:10.165Z,94.95
2023-10-23T02:54:38.763Z,94.80
2023-10-23T02:57:08.067Z,94.60
2023-10-23T02:59:36.741Z,94.45
2023-10-23T03:02:05.830Z,94.36
2023-10-23T03:04:35.983Z,94.40
2023-10-23T03:07:04.676Z,94.83
2023-10-23T03:09:33.085Z,94.88
2023-10-23T03:12:01.652Z,94.87
2023-10-23T03:14:30.161Z,94.69
2023-10-23T03:16:58.611Z,94.56
2023-10-23T03:19:27.531Z,94.81
2023-10-23T03:21:56.096Z,95.03
2023-10-23T03:24:24.591Z,94.83
2023-10-23T03:26:53.372Z,95.08
2023-10-23T03:29:22.377Z,95.21
2023-10-23T03:31:51.097Z,95.04
2023-10-23T03:34:19.899Z,94.76
2023-10-23T03:36:48.528Z,94.79
2023-10-23T03:39:17.056Z,94.85
2023-10-23T03:41:45.743Z,95.00
2023-10-23T03:44:14.452Z,94.87
2023-10-23T03:46:43.676Z,94.83
2023-10-23T03:49:13.567Z,94.77
2023-10-23T03:51:42.459Z,94.80
2023-10-23T03:54:11.657Z,94.67
2023-10-23T03:56:40.265Z,94.65
2023-10-23T03:59:08.691Z,94.55
2023-10-23T04:01:37.269Z,94.79
2023-10-23T04:04:06.277Z,94.58
2023-10-23T04:06:35.041Z,94.42
2023-10-23T04:09:03.613Z,94.40
2023-10-23T04:11:32.250Z,94.63
2023-10-23T04:14:00.696Z,94.56
2023-10-23T04:16:29.288Z,94.74
2023-10-23T04:18:57.899Z,95.07
2023-10-23T04:21:26.484Z,94.82
2023-10-23T04:23:55.164Z,95.01
2023-10-23T04:26:23.699Z,95.20
2023-10-23T04:28:52.195Z,95.21
2023-10-23T04:31:20.785Z,95.10
2023-10-23T04:33:49.315Z,94.98
2023-10-23T04:36:18.546Z,94.92
2023-10-23T04:38:47.212Z,95.22
2023-10-23T04:41:16.183Z,95.17
2023-10-23T04:43:44.753Z,95.03
2023-10-23T04:46:13.370Z,94.86
2023-10-23T04:48:42.038Z,94.73
2023-10-23T04:51:10.633Z,94.96
2023-10-23T04:53:39.618Z,94.91
2023-10-23T04:56:08.777Z,94.90
2023-10-23T04:58:37.511Z,95.03
2023-10-23T05:01:06.257Z,95.19
2023-10-23T05:03:34.851Z,95.24
2023-10-23T05:06:03.395Z,95.39
2023-10-23T05:08:32.719Z,95.26
2023-10-23T05:11:10.105Z,95.04
2023-10-23T05:13:38.700Z,94.88
2023-10-23T05:16:08.945Z,95.11
2023-10-23T05:18:37.785Z,95.05
2023-10-23T05:21:12.275Z,94.84
2023-10-23T05:23:42.513Z,94.86
2023-10-23T05:26:14.166Z,94.99
2023-10-23T05:28:43.873Z,95.17
2023-10-23T05:31:12.471Z,95.49
2023-10-23T05:33:41.196Z,95.42
2023-10-23T05:36:14.046Z,95.11
2023-10-23T05:38:43.148Z,95.25
2023-10-23T05:41:12.184Z,95.25
2023-10-23T05:43:40.689Z,95.24
2023-10-23T05:46:09.512Z,95.14
2023-10-23T05:48:40.735Z,95.02
2023-10-23T05:51:09.631Z,94.84
2023-10-23T05:53:38.365Z,95.01
2023-10-23T05:56:09.057Z,94.93
2023-10-23T05:58:37.917Z,94.84
2023-10-23T06:01:11.783Z,95.04
2023-10-23T06:03:40.746Z,95.34
2023-10-23T06:06:09.648Z,95.38
2023-10-23T06:08:38.139Z,95.27
2023-10-23T06:11:11.287Z,95.17
2023-10-23T06:13:41.628Z,94.98
2023-10-23T06:16:10.238Z,95.03
2023-10-23T06:18:40.672Z,95.33
2023-10-23T06:21:10.299Z,95.26
2023-10-23T06:23:42.295Z,95.14
2023-10-23T06:26:11.692Z,95.48
2023-10-23T06:28:40.176Z,95.80
2023-10-23T06:31:12.767Z,95.69
2023-10-23T06:33:41.546Z,95.90
2023-10-23T06:36:10.984Z,95.76
2023-10-23T06:38:40.458Z,95.48
2023-10-23T06:41:10.113Z,95.20
2023-10-23T06:43:39.072Z,95.12
2023-10-23T06:46:08.066Z,95.16
2023-10-23T06:48:36.670Z,95.16
2023-10-23T06:51:06.546Z,95.15
2023-10-23T06:53:36.600Z,95.16
2023-10-23T06:56:06.005Z,95.17
2023-10-23T06:58:34.640Z,95.19
2023-10-23T07:01:10.445Z,95.24
2023-10-23T07:03:39.517Z,95.31
2023-10-23T07:06:09.758Z,95.41
2023-10-23T07:08:40.881Z,95.57
2023-10-23T07:11:24.313Z,95.76
2023-10-23T07:13:52.841Z,95.74
2023-10-23T07:16:21.855Z,95.67
2023-10-23T07:18:50.617Z,95.65
2023-10-23T07:21:20.692Z,95.64
2023-10-23T07:23:49.279Z,95.65
2023-10-23T07:26:18.463Z,95.65
2023-10-23T07:28:47.300Z,95.63
2023-10-23T07:31:16.464Z,95.44
2023-10-23T07:33:45.455Z,95.31
2023-10-23T07:36:16.642Z,95.27
2023-10-23T07:38:47.131Z,95.13
2023-10-23T07:41:16.179Z,94.94
2023-10-23T07:43:45.589Z,94.79
2023-10-23T07:46:17.991Z,94.67
2023-10-23T07:48:48.069Z,94.54
2023-10-23T07:51:17.434Z,94.39
2023-10-23T07:53:46.140Z,94.13
2023-10-23T07:56:14.949Z,94.05
2023-10-23T07:58:43.640Z,94.21
2023-10-23T08:01:15.667Z,93.90
2023-10-23T08:03:44.526Z,93.77
2023-10-23T08:06:14.916Z,93.80
2023-10-23T08:08:47.853Z,94.05
2023-10-23T08:11:16.373Z,92.37
2023-10-23T08:13:45.286Z,93.59
2023-10-23T08:16:13.898Z,92.86
2023-10-23T08:18:43.193Z,91.56
2023-10-23T08:21:16.541Z,89.83
2023-10-23T08:23:48.367Z,90.59
2023-10-23T08:26:17.338Z,91.10
2023-10-23T08:31:34.967Z,86.88
2023-10-23T08:34:10.487Z,87.59
2023-10-23T08:36:40.068Z,88.85
2023-10-23T08:39:09.545Z,88.80
2023-10-23T08:41:42.506Z,86.17
2023-10-23T08:44:12.304Z,84.38
2023-10-23T08:46:43.229Z,85.01
2023-10-23T08:49:12.136Z,83.52
2023-10-23T08:51:47.600Z,83.74
2023-10-23T08:54:22.656Z,83.57
2023-10-23T08:57:02.517Z,84.94
2023-10-23T08:59:31.638Z,83.93
2023-10-23T09:02:01.867Z,82.24
2023-10-23T09:04:31.728Z,83.32
2023-10-23T09:07:02.035Z,84.18
2023-10-23T09:09:32.518Z,81.90
2023-10-23T09:12:01.223Z,81.29
2023-10-23T09:14:33.570Z,80.74
2023-10-23T09:17:02.351Z,80.26
2023-10-23T09:19:40.866Z,80.32
2023-10-23T09:22:10.191Z,80.35
2023-10-23T09:24:39.997Z,80.50
2023-10-23T09:27:08.770Z,79.61
2023-10-23T09:29:37.284Z,80.31
2023-10-23T09:32:07.509Z,79.78
2023-10-23T09:34:44.048Z,80.34
2023-10-23T09:37:13.010Z,80.08
2023-10-23T09:39:42.545Z,80.21
2023-10-23T09:42:11.817Z,79.99
2023-10-23T09:44:45.184Z,80.30
2023-10-23T09:47:17.072Z,80.50
2023-10-23T09:49:48.105Z,80.56
2023-10-23T09:52:17.419Z,79.78
2023-10-23T09:54:54.073Z,80.28
2023-10-23T09:57:52.213Z,79.73
2023-10-23T10:00:21.721Z,79.01
2023-10-23T10:03:01.618Z,78.16
2023-10-23T10:05:51.927Z,77.65
2023-10-23T10:08:27.178Z,77.46
2023-10-23T10:10:58.754Z,77.51
2023-10-23T10:13:30.813Z,77.18
2023-10-23T10:16:01.538Z,77.22
2023-10-23T10:18:31.762Z,76.95
2023-10-23T10:21:07.715Z,77.30
2023-10-23T10:23:39.622Z,76.16
2023-10-23T10:26:09.247Z,76.24
2023-10-23T10:28:41.654Z,75.65
2023-10-23T10:31:11.043Z,75.76
2023-10-23T10:34:29.020Z,75.36
2023-10-23T10:36:47.444Z,74.88
2023-10-23T10:39:19.144Z,74.81
2023-10-23T10:41:47.912Z,74.70
2023-10-23T10:44:20.582Z,75.02
2023-10-23T10:46:55.361Z,74.69
2023-10-23T10:49:24.787Z,73.50
2023-10-23T10:51:54.318Z,73.51
2023-10-23T10:54:23.424Z,73.79
2023-10-23T10:56:53.668Z,74.04
2023-10-23T10:59:29.149Z,73.85
2023-10-23T11:01:58.124Z,73.58
2023-10-23T11:04:27.231Z,73.83
2023-10-23T11:06:56.455Z,74.34
2023-10-23T11:09:25.019Z,73.62
2023-10-23T11:11:53.469Z,73.23
2023-10-23T11:14:21.972Z,73.65
2023-10-23T11:16:50.799Z,73.53
2023-10-23T11:19:19.686Z,73.01
2023-10-23T11:21:48.171Z,73.52
2023-10-23T11:24:17.035Z,73.02
2023-10-23T11:26:47.407Z,73.33
2023-10-23T11:29:18.808Z,73.00
2023-10-23T11:31:47.484Z,72.77
2023-10-23T11:34:18.163Z,72.64
2023-10-23T11:36:51.141Z,72.29
2023-10-23T11:39:22.577Z,72.21
2023-10-23T11:42:01.748Z,71.82
2023-10-23T11:44:36.376Z,71.16
2023-10-23T11:47:07.178Z,72.05
2023-10-23T11:49:36.168Z,72.06
2023-10-23T11:52:06.215Z,71.86
2023-10-23T11:54:34.851Z,71.44
2023-10-23T11:57:03.451Z,71.08
2023-10-23T11:59:32.108Z,71.40
2023-10-23T12:02:01.510Z,71.01
2023-10-23T12:04:37.260Z,71.36
2023-10-23T12:07:06.455Z,70.84
2023-10-23T12:09:35.414Z,70.47
2023-10-23T12:12:06.204Z,70.54
2023-10-23T12:14:34.778Z,70.87
2023-10-23T12:17:05.308Z,70.65
2023-10-23T12:19:33.903Z,70.98
2023-10-23T12:22:02.488Z,70.49
2023-10-23T12:24:31.074Z,71.12
2023-10-23T12:26:59.673Z,71.09
2023-10-23T12:29:28.530Z,70.87
2023-10-23T12:32:00.610Z,70.56
2023-10-23T12:34:32.897Z,70.29
2023-10-23T12:37:01.985Z,70.30
2023-10-23T12:39:33.570Z,70.54
2023-10-23T12:42:03.767Z,70.72
2023-10-23T12:44:32.671Z,70.99
2023-10-23T12:47:01.548Z,71.23
2023-10-23T12:49:30.895Z,70.55
2023-10-23T12:51:59.631Z,71.12
2023-10-23T12:54:28.762Z,71.06
2023-10-23T12:56:59.362Z,71.05
2023-10-23T12:59:28.007Z,71.18
2023-10-23T13:01:56.535Z,70.79
2023-10-23T13:04:25.229Z,71.03
2023-10-23T13:06:55.902Z,70.97
2023-10-23T13:09:26.796Z,71.06
2023-10-23T13:11:55.899Z,71.33
2023-10-23T13:14:24.390Z,71.56
2023-10-23T13:16:53.045Z,71.22
2023-10-23T13:19:21.793Z,70.77
2023-10-23T13:21:50.457Z,71.43
2023-10-23T13:24:19.734Z,71.20
2023-10-23T13:26:48.241Z,71.02
2023-10-23T13:29:16.877Z,71.17
2023-10-23T13:31:50.853Z,71.57
2023-10-23T13:34:20.418Z,71.46
2023-10-23T13:36:49.024Z,71.67
2023-10-23T13:39:18.022Z,71.78
2023-10-23T13:41:47.578Z,72.21
2023-10-23T13:44:16.190Z,72.12
2023-10-23T13:46:44.903Z,72.54
2023-10-23T13:49:14.079Z,72.39
2023-10-23T13:51:42.904Z,72.29
2023-10-23T13:54:11.344Z,72.54
2023-10-23T13:56:39.962Z,73.01
2023-10-23T13:59:08.583Z,73.26
2023-10-23T14:01:37.166Z,73.44
2023-10-23T14:04:06.456Z,73.14
2023-10-23T14:06:35.705Z,72.83
2023-10-23T14:09:40.730Z,72.67
2023-10-23T14:11:59.987Z,72.89
2023-10-23T14:14:31.334Z,70.26
2023-10-23T14:17:00.841Z,69.59
2023-10-23T14:19:42.423Z,70.07
2023-10-23T14:22:15.681Z,70.24
2023-10-23T14:24:44.390Z,69.86
2023-10-23T14:27:13.099Z,70.01
2023-10-23T14:29:41.981Z,69.94
2023-10-23T14:32:10.802Z,69.56
2023-10-23T14:34:39.513Z,68.05
2023-10-23T14:37:08.632Z,67.59
2023-10-23T14:39:37.166Z,66.53
2023-10-23T14:42:07.236Z,67.34
2023-10-23T14:44:39.017Z,67.82
2023-10-23T14:47:07.913Z,68.71
2023-10-23T14:49:36.569Z,69.77
2023-10-23T14:52:06.584Z,69.88
2023-10-23T14:54:35.291Z,70.53
2023-10-23T14:57:05.797Z,70.71
2023-10-23T14:59:34.953Z,71.60
2023-10-23T15:02:03.597Z,72.58
2023-10-23T15:04:33.346Z,73.23
2023-10-23T15:07:04.224Z,74.04
2023-10-23T15:09:33.254Z,74.17
2023-10-23T15:12:01.844Z,74.49
2023-10-23T15:14:30.365Z,74.63
2023-10-23T15:17:00.247Z,74.87
2023-10-23T15:19:29.061Z,74.86
2023-10-23T15:21:57.622Z,75.28
2023-10-23T15:24:26.167Z,75.90
2023-10-23T15:26:54.737Z,76.24
2023-10-23T15:29:23.461Z,76.97
2023-10-23T15:31:54.174Z,77.07
2023-10-23T15:34:23.557Z,76.98
2023-10-23T15:36:52.843Z,76.50
2023-10-23T15:39:24.429Z,76.75
2023-10-23T15:41:55.587Z,76.63
2023-10-23T15:44:28.454Z,77.16
2023-10-23T15:46:57.064Z,77.46
2023-10-23T15:49:25.844Z,77.67
2023-10-23T15:51:54.553Z,77.78
2023-10-23T15:54:23.152Z,77.96
2023-10-23T15:56:51.604Z,77.96
2023-10-23T15:59:20.036Z,77.97
2023-10-23T16:01:48.570Z,78.13
2023-10-23T16:04:17.263Z,78.02
2023-10-23T16:06:46.042Z,77.93
2023-10-23T16:09:24.541Z,77.55
2023-10-23T16:11:57.114Z,77.05
2023-10-23T16:14:49.894Z,77.30
2023-10-23T16:17:22.755Z,77.51
2023-10-23T16:19:51.845Z,77.36
2023-10-23T16:22:21.681Z,77.74
2023-10-23T16:24:50.481Z,77.96
2023-10-23T16:27:19.282Z,78.17
2023-10-23T16:29:50.219Z,78.15
2023-10-23T16:32:19.291Z,78.58
2023-10-23T16:34:50.711Z,78.83
2023-10-23T16:37:19.353Z,78.89
2023-10-23T16:39:47.821Z,78.52
2023-10-23T16:42:16.326Z,78.87
2023-10-23T16:44:55.433Z,78.82
2023-10-23T16:47:25.248Z,78.59
2023-10-23T16:49:56.699Z,78.40
2023-10-23T16:52:25.285Z,78.66
2023-10-23T16:54:54.101Z,78.34
2023-10-23T16:57:22.632Z,78.18
2023-10-23T16:59:51.207Z,77.83
2023-10-23T17:02:19.769Z,78.24
2023-10-23T17:04:50.525Z,78.21
2023-10-23T17:07:19.675Z,78.38
2023-10-23T17:09:48.459Z,78.97
2023-10-23T17:12:17.458Z,79.43
2023-10-23T17:14:46.991Z,79.38
2023-10-23T17:17:15.495Z,79.15
2023-10-23T17:19:49.304Z,79.09
2023-10-23T17:22:18.126Z,80.98
2023-10-23T17:24:46.786Z,80.95
2023-10-23T17:27:15.355Z,82.30
2023-10-23T17:29:44.492Z,83.27
2023-10-23T17:32:13.261Z,83.92
2023-10-23T17:34:42.111Z,85.25
2023-10-23T17:37:10.803Z,85.65
2023-10-23T17:39:39.422Z,87.21
2023-10-23T17:42:08.391Z,87.46
2023-10-23T17:44:36.943Z,88.29
2023-10-23T17:47:05.483Z,89.49
2023-10-23T17:49:34.161Z,89.20
2023-10-23T17:52:02.910Z,89.52
2023-10-23T17:54:34.105Z,88.80
2023-10-23T17:57:02.732Z,89.20
2023-10-23T17:59:31.287Z,89.84
2023-10-23T18:01:59.858Z,89.91
2023-10-23T18:04:29.064Z,90.11
2023-10-23T18:06:57.581Z,89.72
2023-10-23T18:09:26.210Z,90.16
2023-10-23T18:11:54.721Z,89.95
2023-10-23T18:14:24.400Z,89.78
2023-10-23T18:16:53.375Z,90.04
2023-10-23T18:19:22.154Z,89.75
2023-10-23T18:21:50.931Z,89.80
2023-10-23T18:24:19.595Z,89.77
2023-10-23T18:26:48.196Z,89.38
2023-10-23T18:29:17.044Z,89.49
2023-10-23T18:31:46.952Z,88.65
2023-10-23T18:34:15.603Z,88.95
2023-10-23T18:36:44.199Z,88.50
2023-10-23T18:39:12.781Z,87.64
2023-10-23T18:41:41.368Z,87.59
2023-10-23T18:44:10.248Z,87.33
2023-10-23T18:46:39.121Z,86.83
2023-10-23T18:49:07.865Z,86.80
2023-10-23T18:51:36.442Z,86.76
2023-10-23T18:54:05.171Z,86.76
2023-10-23T18:56:34.939Z,86.67
2023-10-23T18:59:03.809Z,86.70
2023-10-23T19:01:32.309Z,86.74
2023-10-23T19:04:01.074Z,86.98
2023-10-23T19:06:31.814Z,86.95
2023-10-23T19:09:05.898Z,86.69
2023-10-23T19:11:34.477Z,86.95
2023-10-23T19:14:03.217Z,86.78
2023-10-23T19:16:34.642Z,86.36
2023-10-23T19:19:03.438Z,86.66
2023-10-23T19:21:32.103Z,86.78
2023-10-23T19:24:00.631Z,87.08
2023-10-23T19:26:29.487Z,86.87
2023-10-23T19:28:58.101Z,86.86
2023-10-23T19:31:27.827Z,87.09
2023-10-23T19:33:57.152Z,87.13
2023-10-23T19:36:28.950Z,86.98
2023-10-23T19:38:58.221Z,87.00
2023-10-23T19:41:51.954Z,86.54
2023-10-23T19:44:21.423Z,86.69
2023-10-23T19:46:50.780Z,86.74
2023-10-23T19:49:22.195Z,86.78
2023-10-23T19:51:55.519Z,86.38
2023-10-23T19:54:37.396Z,86.60
2023-10-23T19:57:12.154Z,86.79
2023-10-23T19:59:44.344Z,86.60
2023-10-23T20:02:13.985Z,86.90
2023-10-23T20:04:42.672Z,86.91
2023-10-23T20:07:11.454Z,87.05
2023-10-23T20:09:40.143Z,87.30
2023-10-23T20:12:09.202Z,87.03
2023-10-23T20:14:37.772Z,87.07
2023-10-23T20:17:06.619Z,86.62
2023-10-23T20:19:36.785Z,86.72
2023-10-23T20:22:06.258Z,86.76
2023-10-23T20:24:35.305Z,87.04
2023-10-23T20:27:04.419Z,86.17
2023-10-23T20:29:32.970Z,86.03
2023-10-23T20:32:02.855Z,86.17
2023-10-23T20:34:32.009Z,86.06
2023-10-23T20:37:00.551Z,86.25
2023-10-23T20:39:29.153Z,86.54
2023-10-23T20:41:57.828Z,86.71
2023-10-23T20:44:26.391Z,86.48
2023-10-23T20:46:55.689Z,86.99
2023-10-23T20:49:24.294Z,86.99
2023-10-23T20:51:52.887Z,87.07
2023-10-23T20:54:22.160Z,87.35
2023-10-23T20:56:50.672Z,87.37
2023-10-23T20:59:19.254Z,87.61
2023-10-23T21:01:47.769Z,87.90
2023-10-23T21:04:16.935Z,87.88
2023-10-23T21:06:45.738Z,87.78
2023-10-23T21:09:14.233Z,88.14
2023-10-23T21:11:42.895Z,88.43
2023-10-23T21:14:11.486Z,88.37
2023-10-23T21:16:45.784Z,88.92
2023-10-23T21:19:16.230Z,88.96
2023-10-23T21:21:49.717Z,89.11
2023-10-23T21:24:18.687Z,89.19
2023-10-23T21:26:47.270Z,88.97
2023-10-23T21:29:25.651Z,89.19
2023-10-23T21:31:55.438Z,89.28
2023-10-23T21:34:24.995Z,89.23
2023-10-23T21:36:53.613Z,89.31
2023-10-23T21:39:22.323Z,89.37
2023-10-23T21:41:50.990Z,89.15
2023-10-23T21:44:19.535Z,89.25
2023-10-23T21:46:49.477Z,89.74
2023-10-23T21:49:18.218Z,90.33
2023-10-23T21:51:47.534Z,91.03
2023-10-23T21:54:16.857Z,90.88
2023-10-23T21:57:19.776Z,91.47
2023-10-23T21:59:36.188Z,91.18
2023-10-23T22:02:06.538Z,91.61
2023-10-23T22:04:35.818Z,91.51
2023-10-23T22:07:05.373Z,91.49
2023-10-23T22:09:37.559Z,91.79
2023-10-23T22:12:07.563Z,91.79
2023-10-23T22:14:36.890Z,91.34
2023-10-23T22:17:05.873Z,91.47
2023-10-23T22:19:35.092Z,91.56
2023-10-23T22:22:04.388Z,92.05
2023-10-23T22:24:32.971Z,91.85
2023-10-23T22:27:01.728Z,91.76
2023-10-23T22:29:30.260Z,91.86
2023-10-23T22:31:58.981Z,91.73
2023-10-23T22:34:27.712Z,91.43
2023-10-23T22:37:46.305Z,91.13
2023-10-23T22:39:44.727Z,90.89
2023-10-23T22:42:13.339Z,90.84
2023-10-23T22:44:42.479Z,90.64
2023-10-23T22:47:11.995Z,90.39
2023-10-23T22:49:42.334Z,90.26
2023-10-23T22:52:13.354Z,90.11
2023-10-23T22:54:43.332Z,90.03
2023-10-23T22:57:16.999Z,90.17
2023-10-23T22:59:46.560Z,90.32
2023-10-23T23:02:15.754Z,90.46
2023-10-23T23:04:47.278Z,90.28
2023-10-23T23:07:17.446Z,90.41
2023-10-23T23:09:46.546Z,90.52
2023-10-23T23:12:16.384Z,90.28
2023-10-23T23:14:45.698Z,90.25
2023-10-23T23:17:22.398Z,89.99
2023-10-23T23:19:54.196Z,89.94
2023-10-23T23:22:22.981Z,89.93
2023-10-23T23:24:51.591Z,89.85
2023-10-23T23:27:20.825Z,89.89
2023-10-23T23:29:49.283Z,90.14
2023-10-23T23:32:18.669Z,90.05
2023-10-23T23:34:47.814Z,89.81
2023-10-23T23:37:16.736Z,90.01
2023-10-23T23:39:45.348Z,90.11
2023-10-23T23:42:13.809Z,90.09
2023-10-23T23:44:43.153Z,90.10
2023-10-23T23:47:11.889Z,90.23
2023-10-23T23:49:41.671Z,90.62
2023-10-23T23:52:10.587Z,90.42
2023-10-23T23:54:39.407Z,90.46
2023-10-23T23:57:09.298Z,90.46
2023-10-23T23:59:37.786Z,90.62
